createdAt,value
2018-08-27T00:00:21.023Z,22.36
2018-08-27T00:00:53.098Z,22.42
2018-08-27T00:01:25.246Z,22.33
2018-08-27T00:01:57.273Z,22.44
2018-08-27T00:02:29.432Z,22.41
2018-08-27T00:03:01.483Z,22.36
2018-08-27T00:03:33.557Z,22.38
2018-08-27T00:04:05.619Z,22.38
2018-08-27T00:04:37.671Z,22.41
2018-08-27T00:05:09.734Z,22.39
2018-08-27T00:05:41.829Z,22.36
2018-08-27T00:06:13.888Z,22.39
2018-08-27T00:06:45.929Z,22.39
2018-08-27T00:07:17.955Z,22.41
2018-08-27T00:07:49.976Z,22.33
2018-08-27T00:08:22.030Z,22.36
2018-08-27T00:08:54.106Z,22.36
2018-08-27T00:09:26.134Z,22.36
2018-08-27T00:09:58.211Z,22.31
2018-08-27T00:10:30.243Z,22.39
2018-08-27T00:11:02.416Z,22.36
2018-08-27T00:11:34.456Z,22.38
2018-08-27T00:12:06.488Z,22.36
2018-08-27T00:12:38.586Z,22.33
2018-08-27T00:13:10.656Z,22.3
2018-08-27T00:13:42.730Z,22.34
2018-08-27T00:14:14.793Z,22.36
2018-08-27T00:14:46.863Z,22.33
2018-08-27T00:15:18.955Z,22.34
2018-08-27T00:15:51.010Z,22.23
2018-08-27T00:16:23.055Z,22.34
2018-08-27T00:16:55.124Z,22.36
2018-08-27T00:17:27.197Z,22.31
2018-08-27T00:17:59.234Z,22.3
2018-08-27T00:18:31.320Z,22.26
2018-08-27T00:19:03.370Z,22.24
2018-08-27T00:19:35.501Z,22.31
2018-08-27T00:20:07.558Z,22.24
2018-08-27T00:20:39.624Z,22.26
2018-08-27T00:21:11.677Z,22.24
2018-08-27T00:21:44.421Z,22.27
2018-08-27T00:22:16.468Z,22.26
2018-08-27T00:22:48.624Z,22.27
2018-08-27T00:23:20.734Z,22.33
2018-08-27T00:23:52.853Z,22.31
2018-08-27T00:24:24.882Z,22.27
2018-08-27T00:24:56.964Z,22.23
2018-08-27T00:25:29.026Z,22.22
2018-08-27T00:26:01.156Z,22.22
2018-08-27T00:26:33.215Z,22.26
2018-08-27T00:27:05.300Z,22.24
2018-08-27T00:27:38.015Z,22.22
2018-08-27T00:28:10.064Z,22.23
2018-08-27T00:28:42.102Z,22.22
2018-08-27T00:29:14.202Z,22.31
2018-08-27T00:29:46.256Z,22.31
2018-08-27T00:30:18.328Z,22.24
2018-08-27T00:30:50.425Z,22.23
2018-08-27T00:31:22.506Z,22.23
2018-08-27T00:31:54.561Z,22.29
2018-08-27T00:32:26.576Z,22.3
2018-08-27T00:32:58.640Z,22.3
2018-08-27T00:33:30.756Z,22.26
2018-08-27T00:34:02.968Z,22.15
2018-08-27T00:34:34.960Z,22.27
2018-08-27T00:35:07.013Z,22.29
2018-08-27T00:35:39.058Z,22.27
2018-08-27T00:36:11.108Z,22.26
2018-08-27T00:36:43.126Z,22.27
2018-08-27T00:37:15.183Z,22.27
2018-08-27T00:37:47.250Z,22.11
2018-08-27T00:38:19.319Z,22.23
2018-08-27T00:38:51.411Z,22.22
2018-08-27T00:39:23.585Z,22.27
2018-08-27T00:39:55.704Z,22.11
2018-08-27T00:40:28.496Z,22.23
2018-08-27T00:41:00.553Z,22.26
2018-08-27T00:41:32.564Z,22.2
2018-08-27T00:42:04.746Z,22.16
2018-08-27T00:42:36.878Z,22.15
2018-08-27T00:43:08.909Z,22.22
2018-08-27T00:43:40.958Z,22.24
2018-08-27T00:44:12.997Z,22.15
2018-08-27T00:44:45.057Z,22.11
2018-08-27T00:45:17.114Z,22.23
2018-08-27T00:45:49.186Z,22.23
2018-08-27T00:46:21.192Z,22.09
2018-08-27T00:46:53.246Z,22.12
2018-08-27T00:47:25.320Z,22.15
2018-08-27T00:47:57.375Z,22.15
2018-08-27T00:48:29.385Z,22.14
2018-08-27T00:49:01.462Z,22.09
2018-08-27T00:49:33.546Z,22.09
2018-08-27T00:50:05.739Z,22.08
2018-08-27T00:50:37.822Z,22.12
2018-08-27T00:51:09.863Z,22.26
2018-08-27T00:51:41.913Z,22.26
2018-08-27T00:52:13.935Z,22.12
2018-08-27T00:52:46.087Z,22.08
2018-08-27T00:53:18.194Z,22.26
2018-08-27T00:53:50.264Z,22.23
2018-08-27T00:54:22.339Z,22.16
2018-08-27T00:54:54.377Z,22.2
2018-08-27T00:55:26.441Z,22.16
2018-08-27T00:55:58.522Z,22.18
2018-08-27T00:56:30.597Z,22.08
2018-08-27T00:57:02.680Z,22.14
2018-08-27T00:57:34.728Z,22.15
2018-08-27T00:58:06.752Z,22.05
2018-08-27T00:58:38.805Z,22.05
2018-08-27T00:59:10.880Z,22.14
2018-08-27T00:59:42.931Z,22.11
2018-08-27T01:00:15.007Z,22.16
2018-08-27T01:00:47.022Z,22.09
2018-08-27T01:01:19.068Z,22.15
2018-08-27T01:01:51.150Z,22.15
2018-08-27T01:02:23.216Z,22.09
2018-08-27T01:02:55.284Z,22.11
2018-08-27T01:03:27.338Z,22.07
2018-08-27T01:03:59.418Z,22.12
2018-08-27T01:04:31.467Z,22.11
2018-08-27T01:05:03.563Z,22.14
2018-08-27T01:05:35.760Z,22.07
2018-08-27T01:06:07.835Z,22.18
2018-08-27T01:06:39.993Z,22.12
2018-08-27T01:07:12.053Z,22.11
2018-08-27T01:07:44.111Z,22.08
2018-08-27T01:08:16.176Z,22.09
2018-08-27T01:08:48.295Z,22.07
2018-08-27T01:09:20.358Z,22.11
2018-08-27T01:09:52.376Z,22.04
2018-08-27T01:10:24.459Z,22.09
2018-08-27T01:10:56.527Z,22.12
2018-08-27T01:11:28.640Z,22.11
2018-08-27T01:12:00.666Z,22.15
2018-08-27T01:12:32.727Z,22.04
2018-08-27T01:13:04.798Z,22.05
2018-08-27T01:13:36.824Z,22.07
2018-08-27T01:14:08.857Z,22.09
2018-08-27T01:14:40.924Z,22.09
2018-08-27T01:15:12.958Z,22.08
2018-08-27T01:15:45.164Z,22
2018-08-27T01:16:17.328Z,22.14
2018-08-27T01:16:50.143Z,22.11
2018-08-27T01:17:22.193Z,22.09
2018-08-27T01:17:54.281Z,22.11
2018-08-27T01:18:26.323Z,22.07
2018-08-27T01:18:58.397Z,22.08
2018-08-27T01:19:30.434Z,22.07
2018-08-27T01:20:02.607Z,22.11
2018-08-27T01:20:34.626Z,22.11
2018-08-27T01:21:06.700Z,22.05
2018-08-27T01:21:38.748Z,22.04
2018-08-27T01:22:10.794Z,22.05
2018-08-27T01:22:42.862Z,22.05
2018-08-27T01:23:18.215Z,22.04
2018-08-27T01:23:50.258Z,22.04
2018-08-27T01:24:22.350Z,22
2018-08-27T01:24:54.399Z,22.02
2018-08-27T01:25:26.451Z,22.02
2018-08-27T01:25:58.490Z,21.97
2018-08-27T01:26:30.513Z,21.99
2018-08-27T01:27:02.582Z,22
2018-08-27T01:27:34.643Z,22.04
2018-08-27T01:28:06.678Z,21.93
